createdAt,value
2019-03-20T00:00:23.526Z,98.11
2019-03-20T00:01:03.950Z,98.02
2019-03-20T00:01:44.326Z,97.55
2019-03-20T00:02:24.720Z,97.92
2019-03-20T00:03:05.104Z,96.03
2019-03-20T00:03:45.545Z,97.92
2019-03-20T00:04:25.897Z,97.45
2019-03-20T00:05:06.302Z,96.12
2019-03-20T00:05:46.658Z,96.41
2019-03-20T00:06:27.102Z,96.5
2019-03-20T00:07:07.456Z,97.07
2019-03-20T00:07:47.801Z,96.97
2019-03-20T00:08:28.228Z,96.12
2019-03-20T00:09:08.595Z,95.84
2019-03-20T00:09:48.974Z,96.22
2019-03-20T00:10:29.429Z,96.03
2019-03-20T00:11:09.784Z,96.12
2019-03-20T00:11:50.137Z,98.02
2019-03-20T00:12:30.550Z,97.45
2019-03-20T00:13:10.958Z,96.41
2019-03-20T00:13:51.312Z,95.84
2019-03-20T00:14:31.768Z,94.89
2019-03-20T00:15:12.097Z,95.46
2019-03-20T00:15:52.468Z,94.7
2019-03-20T00:16:32.870Z,95.93
2019-03-20T00:17:13.267Z,96.41
2019-03-20T00:17:53.690Z,95.84
2019-03-20T00:18:33.992Z,94.89
2019-03-20T00:19:14.372Z,94.79
2019-03-20T00:19:54.783Z,94.98
2019-03-20T00:20:35.127Z,94.32
2019-03-20T00:21:15.638Z,93.37
2019-03-20T00:21:55.952Z,93.56
2019-03-20T00:22:36.393Z,94.23
2019-03-20T00:23:16.734Z,94.7
2019-03-20T00:23:57.179Z,94.98
2019-03-20T00:24:37.573Z,94.32
2019-03-20T00:25:17.960Z,94.03
2019-03-20T00:25:58.379Z,94.13
2019-03-20T00:26:38.756Z,94.03
2019-03-20T00:27:19.213Z,94.79
2019-03-20T00:27:59.618Z,94.98
2019-03-20T00:28:39.956Z,94.89
2019-03-20T00:29:20.378Z,94.89
2019-03-20T00:30:00.769Z,94.79
2019-03-20T00:30:41.127Z,94.23
2019-03-20T00:31:21.527Z,94.51
2019-03-20T00:32:01.936Z,95.27
2019-03-20T00:32:42.294Z,94.98
2019-03-20T00:33:22.717Z,95.17
2019-03-20T00:34:03.131Z,94.89
2019-03-20T00:34:43.542Z,94.79
2019-03-20T00:35:23.877Z,94.51
2019-03-20T00:36:04.212Z,94.03
2019-03-20T00:36:44.615Z,95.46
2019-03-20T00:37:24.987Z,94.7
2019-03-20T00:38:05.411Z,94.7
2019-03-20T00:38:45.770Z,93.84
2019-03-20T00:39:27.757Z,93.94
2019-03-20T00:43:49.973Z,92.9
2019-03-20T00:44:29.144Z,92.8
2019-03-20T00:45:09.561Z,92.71
2019-03-20T00:45:49.953Z,92.9
2019-03-20T00:46:30.380Z,92.8
2019-03-20T00:47:10.752Z,93.75
2019-03-20T00:47:51.179Z,93.37
2019-03-20T00:48:31.587Z,93.37
2019-03-20T00:49:11.986Z,93.27
2019-03-20T00:49:52.406Z,93.46
2019-03-20T00:50:32.861Z,93.75
2019-03-20T00:51:13.233Z,94.6
2019-03-20T00:51:53.660Z,94.51
2019-03-20T00:52:34.012Z,94.23
2019-03-20T00:53:14.440Z,94.13
2019-03-20T00:53:54.896Z,94.13
2019-03-20T00:54:35.279Z,94.74
2019-03-20T00:55:15.650Z,95.55
2019-03-20T00:55:56.046Z,95.46
2019-03-20T00:56:36.446Z,94.98
2019-03-20T00:57:16.845Z,94.27
2019-03-20T00:57:57.287Z,95.84
2019-03-20T00:58:39.620Z,96.41
2019-03-20T00:59:18.100Z,94.7
2019-03-20T00:59:58.526Z,96.03
2019-03-20T01:00:38.897Z,94.89
2019-03-20T01:01:19.320Z,94.6
2019-03-20T01:01:59.748Z,95.93
2019-03-20T01:02:40.137Z,94.42
2019-03-20T01:03:20.488Z,94.32
2019-03-20T01:04:00.924Z,93.94
2019-03-20T01:04:41.280Z,94.13
2019-03-20T01:05:21.678Z,95.27
2019-03-20T01:06:02.064Z,94.23
2019-03-20T01:06:42.452Z,93.27
2019-03-20T01:07:22.851Z,93.56
2019-03-20T01:08:03.219Z,94.79
2019-03-20T01:08:43.661Z,94.79
2019-03-20T01:09:23.975Z,93.84
2019-03-20T01:10:04.405Z,95.17
2019-03-20T01:10:44.789Z,94.89
2019-03-20T01:11:25.190Z,95.84
2019-03-20T01:12:05.558Z,94.7
2019-03-20T01:12:46.941Z,94.23
2019-03-20T01:13:27.299Z,93.18
2019-03-20T01:14:07.737Z,93.08
2019-03-20T01:19:49.945Z,91.66
2019-03-20T01:20:32.893Z,91.19
2019-03-20T01:21:13.970Z,90.52
2019-03-20T01:21:54.350Z,91.19
2019-03-20T01:22:34.817Z,91.28
2019-03-20T01:23:15.226Z,91.85
2019-03-20T01:23:55.604Z,91.85
2019-03-20T01:24:36.022Z,92.8
2019-03-20T01:25:16.406Z,91.66
2019-03-20T01:25:56.806Z,92.04
2019-03-20T01:26:38.139Z,92.52
2019-03-20T01:27:18.574Z,92.61
2019-03-20T01:27:58.903Z,91.85
2019-03-20T01:28:39.256Z,93.18
2019-03-20T01:29:19.691Z,93.46
2019-03-20T01:30:00.169Z,92.76
2019-03-20T01:30:40.467Z,93.94
2019-03-20T01:31:20.824Z,93.75
2019-03-20T01:32:01.256Z,93.94
2019-03-20T01:32:41.706Z,92.99
2019-03-20T01:33:22.070Z,93.65
2019-03-20T01:37:28.493Z,92.33
2019-03-20T01:38:18.974Z,93.08
2019-03-20T01:40:25.952Z,93.37
2019-03-20T01:41:14.620Z,92.9
2019-03-20T01:42:04.431Z,92.04
2019-03-20T01:43:03.421Z,92.28
2019-03-20T01:46:06.770Z,93.04
2019-03-20T01:46:59.693Z,92.76
2019-03-20T01:51:27.755Z,92.28
2019-03-20T01:52:19.810Z,92.47
2019-03-20T01:52:56.926Z,92.57
2019-03-20T01:53:37.309Z,94.37
2019-03-20T01:54:17.717Z,94.65
2019-03-20T01:54:58.083Z,94.56
2019-03-20T01:55:38.473Z,94.74
2019-03-20T01:56:18.866Z,94.56
2019-03-20T01:56:59.293Z,94.84
2019-03-20T01:57:39.688Z,94.18
2019-03-20T01:58:20.026Z,93.99
2019-03-20T01:59:00.449Z,94.08
2019-03-20T01:59:40.826Z,94.65
2019-03-20T02:00:21.252Z,95.12
2019-03-20T02:01:01.618Z,94.84
2019-03-20T02:01:42.020Z,94.18
2019-03-20T02:02:22.428Z,92.85
2019-03-20T02:03:02.823Z,93.23
2019-03-20T02:03:43.274Z,93.89
2019-03-20T02:04:23.668Z,93.99
2019-03-20T02:05:04.031Z,94.65
2019-03-20T02:05:44.436Z,94.08
2019-03-20T02:06:24.795Z,94.27
2019-03-20T02:07:05.244Z,94.27
2019-03-20T02:07:45.691Z,94.65
2019-03-20T02:08:26.029Z,95.98
2019-03-20T02:09:06.400Z,94.74
2019-03-20T02:09:46.793Z,94.65
2019-03-20T02:10:27.190Z,94.27
2019-03-20T02:11:07.586Z,94.18
2019-03-20T02:11:47.954Z,94.56
2019-03-20T02:12:28.392Z,94.65
2019-03-20T02:13:08.777Z,94.7
2019-03-20T02:13:49.150Z,93.18
2019-03-20T02:14:29.564Z,93.32
2019-03-20T02:15:09.945Z,92.47
2019-03-20T02:15:50.339Z,92.18
2019-03-20T02:16:30.772Z,92.57
2019-03-20T02:17:11.215Z,93.94
2019-03-20T02:17:51.566Z,92.66
2019-03-20T02:18:31.936Z,93.27
2019-03-20T02:19:12.338Z,92.99
2019-03-20T02:19:52.734Z,92.23
2019-03-20T02:20:33.180Z,90.9
2019-03-20T02:21:13.530Z,90.52
2019-03-20T02:21:53.906Z,90.14
2019-03-20T02:22:34.286Z,90.43
2019-03-20T02:23:14.714Z,89.91
2019-03-20T02:23:55.092Z,90.86
2019-03-20T02:24:35.457Z,91.99
2019-03-20T02:25:15.854Z,91.71
2019-03-20T02:25:56.231Z,92.57
2019-03-20T02:26:36.684Z,92.66
2019-03-20T02:27:17.067Z,92.38
2019-03-20T02:27:57.518Z,92.47
2019-03-20T02:28:37.854Z,91.71
2019-03-20T02:29:18.257Z,92.76
2019-03-20T02:29:58.638Z,92.94
2019-03-20T02:30:39.062Z,94.27
2019-03-20T02:31:19.431Z,95.98
2019-03-20T02:31:59.776Z,94.08
2019-03-20T02:32:40.174Z,93.7
2019-03-20T02:33:20.546Z,93.99
2019-03-20T02:34:00.900Z,93.23
2019-03-20T02:34:41.338Z,92.28
2019-03-20T02:35:21.725Z,91.9
2019-03-20T02:36:02.088Z,93.13
2019-03-20T02:36:42.460Z,91.33
2019-03-20T02:37:22.820Z,92.18
2019-03-20T02:38:03.234Z,91.05
2019-03-20T02:38:43.596Z,91.05
2019-03-20T02:39:24.041Z,91.05
2019-03-20T02:40:04.396Z,92.38
2019-03-20T02:40:44.752Z,93.13
2019-03-20T02:41:25.187Z,93.8
2019-03-20T02:42:05.546Z,92.28
2019-03-20T02:42:45.986Z,91.71
2019-03-20T02:43:26.349Z,92.57
2019-03-20T02:44:06.705Z,91.8
2019-03-20T02:44:47.052Z,92.38
2019-03-20T02:45:27.466Z,93.51
2019-03-20T02:46:07.876Z,92.85
2019-03-20T02:46:48.254Z,91.8
2019-03-20T02:47:28.645Z,90.95
2019-03-20T02:48:09.071Z,92.76
2019-03-20T02:48:49.418Z,93.7
2019-03-20T02:49:29.764Z,94.84
2019-03-20T02:50:10.167Z,92.94
2019-03-20T02:50:50.582Z,91.14
2019-03-20T02:51:30.933Z,91.24
2019-03-20T02:52:11.319Z,91.05
2019-03-20T02:52:51.709Z,90.67
2019-03-20T02:53:32.173Z,90.67
2019-03-20T02:54:12.510Z,91.24
2019-03-20T02:54:52.987Z,90.95
2019-03-20T02:55:33.290Z,91.05
2019-03-20T02:56:13.704Z,90.38
2019-03-20T02:56:54.117Z,91.8
2019-03-20T02:57:34.539Z,91.99
2019-03-20T02:58:14.966Z,92.76
2019-03-20T02:58:55.343Z,92.76
2019-03-20T02:59:35.736Z,93.32
2019-03-20T03:00:16.152Z,93.32
2019-03-20T03:00:56.570Z,91.52
2019-03-20T03:01:36.958Z,91.99
2019-03-20T03:02:17.381Z,92.47
2019-03-20T03:02:57.810Z,92.18
2019-03-20T03:03:38.198Z,93.23
2019-03-20T03:04:18.589Z,94.18
2019-03-20T03:04:58.973Z,94.08
2019-03-20T03:05:39.409Z,94.27
2019-03-20T03:06:19.762Z,93.51
2019-03-20T03:07:00.171Z,93.7
2019-03-20T03:07:40.576Z,93.13
2019-03-20T03:08:20.963Z,93.04
2019-03-20T03:09:01.408Z,93.51
2019-03-20T03:09:41.775Z,93.89
2019-03-20T03:10:22.112Z,93.7
2019-03-20T03:11:02.495Z,93.41
2019-03-20T03:11:42.916Z,93.51
2019-03-20T03:13:40.971Z,93.61
2019-03-20T03:14:25.115Z,93.99
2019-03-20T03:15:05.541Z,94.7
2019-03-20T03:15:45.942Z,95.07
2019-03-20T03:16:26.362Z,95.31
2019-03-20T03:17:08.880Z,94.13
2019-03-20T03:17:49.368Z,94.37
2019-03-20T03:18:29.918Z,95.12
2019-03-20T03:19:10.293Z,94.84
2019-03-20T03:19:50.746Z,94.79
2019-03-20T03:20:31.085Z,96.08
2019-03-20T03:21:11.529Z,96.03
2019-03-20T03:21:51.865Z,95.98
2019-03-20T03:22:32.189Z,95.31
2019-03-20T03:23:12.652Z,94.84
2019-03-20T03:23:53.007Z,94.08
2019-03-20T03:24:33.382Z,94.46
2019-03-20T03:25:13.779Z,95.98
2019-03-20T03:25:54.180Z,95.88
2019-03-20T03:26:34.587Z,94.84
2019-03-20T03:27:15.888Z,93.89
2019-03-20T03:27:57.372Z,94.46
2019-03-20T03:28:38.323Z,94.74
2019-03-20T03:29:19.176Z,94.18
2019-03-20T03:30:00.599Z,92.09
2019-03-20T03:30:41.248Z,92.85
2019-03-20T03:31:21.892Z,92.47
2019-03-20T03:32:03.357Z,92.38
2019-03-20T03:32:44.285Z,92.47
2019-03-20T03:33:25.173Z,93.51
2019-03-20T03:34:06.410Z,93.41
2019-03-20T03:34:47.369Z,93.61
2019-03-20T03:35:28.477Z,93.61
2019-03-20T03:36:20.492Z,92.57
2019-03-20T03:36:52.562Z,90.95
2019-03-20T03:37:33.224Z,90.86
2019-03-20T03:38:15.479Z,90.95
2019-03-20T03:38:55.875Z,91.8
2019-03-20T03:39:36.261Z,91.8
2019-03-20T03:40:16.693Z,93.41
2019-03-20T03:40:57.086Z,93.23
2019-03-20T03:41:37.491Z,92.28
2019-03-20T03:42:17.843Z,91.52
2019-03-20T03:42:58.226Z,92.94
2019-03-20T03:43:38.610Z,92.94
2019-03-20T03:44:19.034Z,90.71
2019-03-20T03:44:59.410Z,90.43
2019-03-20T03:45:39.783Z,89.58
2019-03-20T03:46:20.215Z,90.52
2019-03-20T03:47:00.616Z,90.62
2019-03-20T03:47:41.000Z,90.33
2019-03-20T03:48:21.382Z,89.1
2019-03-20T03:49:01.823Z,88.77
2019-03-20T03:49:42.177Z,88.96
2019-03-20T03:50:22.569Z,88.96
2019-03-20T03:51:02.953Z,89.34
2019-03-20T03:51:43.315Z,89.25
2019-03-20T03:52:23.737Z,89.15
2019-03-20T03:53:04.123Z,89.34
2019-03-20T03:53:44.974Z,90.1
2019-03-20T03:54:25.436Z,89.72
2019-03-20T03:55:06.252Z,90.48
2019-03-20T03:55:47.544Z,90.19
2019-03-20T03:56:28.570Z,90.48
2019-03-20T03:57:09.101Z,89.43
2019-03-20T03:57:49.517Z,89.53
2019-03-20T03:58:32.696Z,89.62
2019-03-20T03:59:10.392Z,89.62
2019-03-20T03:59:50.757Z,88.68
2019-03-20T04:00:31.210Z,88.77
2019-03-20T04:01:11.529Z,88.01
2019-03-20T04:01:52.140Z,89.06
2019-03-20T04:02:32.480Z,89.81
2019-03-20T04:03:12.894Z,91.33
2019-03-20T04:03:53.416Z,91.8
2019-03-20T04:04:33.801Z,92.47
2019-03-20T04:05:14.195Z,91.8
2019-03-20T04:05:54.697Z,89.81
2019-03-20T04:06:36.127Z,89.53
2019-03-20T04:07:15.521Z,89.72
2019-03-20T04:07:55.916Z,90.29
2019-03-20T04:08:36.317Z,89.62
2019-03-20T04:09:16.698Z,90.67
2019-03-20T04:09:57.089Z,90.33
2019-03-20T04:10:37.502Z,90.81
2019-03-20T04:15:50.008Z,89.1
2019-03-20T04:16:30.334Z,89.76
2019-03-20T04:17:10.749Z,88.91
2019-03-20T04:17:51.134Z,89.67
2019-03-20T04:18:31.554Z,87.96
2019-03-20T04:19:11.955Z,88.06
2019-03-20T04:19:52.393Z,88.15
2019-03-20T04:20:32.743Z,87.39
2019-03-20T04:21:13.154Z,88.24
2019-03-20T04:21:53.533Z,87.87
2019-03-20T04:22:33.968Z,88.53
2019-03-20T04:23:14.365Z,89.1
2019-03-20T04:23:54.765Z,88.34
2019-03-20T04:24:35.159Z,88.06
2019-03-20T04:25:15.566Z,88.34
2019-03-20T04:25:55.969Z,89.29
2019-03-20T04:26:36.438Z,88.06
2019-03-20T04:27:16.810Z,87.96
2019-03-20T05:08:16.407Z,98.21
2019-03-20T05:09:01.539Z,99.2
2019-03-20T05:09:41.033Z,99.58
2019-03-20T05:10:21.423Z,99.67
2019-03-20T05:11:01.811Z,99.01
2019-03-20T05:11:42.719Z,99.01
2019-03-20T05:12:23.174Z,99.1
2019-03-20T05:13:03.587Z,98.63
2019-03-20T05:13:43.902Z,98.06
2019-03-20T05:14:24.285Z,98.06
2019-03-20T05:15:04.769Z,97.87
2019-03-20T05:15:45.115Z,99.2
2019-03-20T05:16:25.630Z,99.86
2019-03-20T05:17:06.053Z,99.2
2019-03-20T05:17:46.454Z,98.91
2019-03-20T05:18:26.850Z,99.2
2019-03-20T05:19:07.277Z,99.86
2019-03-20T05:19:47.679Z,99.99
2019-03-20T05:20:28.064Z,99.99
2019-03-20T05:21:08.453Z,99.72
2019-03-20T05:21:48.844Z,98.39
2019-03-20T05:22:29.349Z,98.58
2019-03-20T05:23:09.821Z,98.58
2019-03-20T05:23:50.295Z,98.87
2019-03-20T05:24:30.643Z,98.58
2019-03-20T05:25:11.002Z,98.02
2019-03-20T05:25:51.422Z,98.58
2019-03-20T05:26:31.887Z,96.78
2019-03-20T05:27:12.324Z,96.5
2019-03-20T05:27:52.714Z,95.93
2019-03-20T05:28:33.129Z,97.35
2019-03-20T05:29:13.532Z,95.55
2019-03-20T05:29:54.793Z,95.74
2019-03-20T05:30:35.199Z,94.89
2019-03-20T05:31:15.561Z,96.12
2019-03-20T05:31:55.930Z,96.31
2019-03-20T05:32:36.324Z,97.97
2019-03-20T05:33:16.764Z,97.4
2019-03-20T05:33:57.166Z,94.93
2019-03-20T05:34:37.580Z,93.23
2019-03-20T05:35:17.976Z,94.37
2019-03-20T05:35:58.361Z,95.22
2019-03-20T05:36:38.813Z,94.27
2019-03-20T05:37:19.199Z,92.28
2019-03-20T05:37:59.609Z,90.86
2019-03-20T05:38:40.038Z,91.99
2019-03-20T05:39:20.411Z,91.24
2019-03-20T05:40:03.525Z,91.14
2019-03-20T05:40:43.913Z,94.08
2019-03-20T05:41:24.304Z,93.23
2019-03-20T05:42:04.709Z,91.9
2019-03-20T05:42:45.159Z,92.18
2019-03-20T05:43:25.561Z,93.13
2019-03-20T05:44:05.999Z,91.94
2019-03-20T05:44:46.353Z,90.62
2019-03-20T05:45:30.446Z,89.2
2019-03-20T05:46:10.820Z,88.62
2019-03-20T05:46:51.256Z,89.39
2019-03-20T05:47:31.668Z,89.48
2019-03-20T05:48:12.040Z,88.06
2019-03-20T05:52:38.017Z,90.33
2019-03-20T05:53:18.216Z,88.29
2019-03-20T05:53:58.615Z,87.82
2019-03-20T05:54:39.027Z,87.2
2019-03-20T05:55:19.483Z,86.68
2019-03-20T05:55:59.849Z,86.58
2019-03-20T05:56:40.237Z,85.63
2019-03-20T05:57:20.632Z,83.92
2019-03-20T05:58:01.636Z,83.92
2019-03-20T05:58:42.160Z,84.78
2019-03-20T05:59:22.538Z,86.49
2019-03-20T06:00:02.938Z,85.72
2019-03-20T06:00:43.490Z,83.73
2019-03-20T06:01:23.934Z,82.4
2019-03-20T06:02:04.300Z,82.31
2019-03-20T06:02:44.753Z,82.26
2019-03-20T06:03:25.116Z,81.68
2019-03-20T06:04:05.533Z,80.83
2019-03-20T06:04:45.908Z,81.4
2019-03-20T06:05:26.324Z,80.93
2019-03-20T06:06:06.678Z,79.31
2019-03-20T06:06:47.100Z,78.64
2019-03-20T06:07:27.522Z,78.97
2019-03-20T06:08:07.918Z,78.4
2019-03-20T06:08:48.288Z,78.88
2019-03-20T06:09:28.674Z,77.07
2019-03-20T06:10:09.063Z,77.17
2019-03-20T06:10:49.586Z,76.82
2019-03-20T06:11:29.881Z,77.2
2019-03-20T06:12:10.391Z,76.06
2019-03-20T06:12:50.658Z,74.54
2019-03-20T06:13:31.289Z,72.92
2019-03-20T06:14:11.754Z,73.49
2019-03-20T06:14:52.150Z,72.92
2019-03-20T06:19:00.850Z,71.15
2019-03-20T06:19:47.177Z,70.2
2019-03-20T06:20:27.586Z,69.82
2019-03-20T06:21:07.996Z,69.44
2019-03-20T06:21:48.489Z,69.73
2019-03-20T06:22:28.976Z,69.67
2019-03-20T06:23:11.110Z,69.48
2019-03-20T06:23:49.723Z,69
2019-03-20T06:24:30.137Z,68.24
2019-03-20T06:25:10.559Z,67.76
2019-03-20T06:25:51.557Z,66.81
2019-03-20T06:26:31.327Z,67.47
2019-03-20T06:27:11.685Z,67.47
2019-03-20T06:27:53.062Z,67.38
2019-03-20T06:28:32.528Z,68.52
2019-03-20T06:29:12.920Z,68.62
2019-03-20T06:29:53.327Z,69.19
2019-03-20T06:30:33.755Z,68.87
2019-03-20T06:31:14.160Z,69.54
2019-03-20T06:31:54.566Z,69.44
2019-03-20T06:32:34.973Z,70.3
2019-03-20T06:33:15.347Z,70.1
2019-03-20T06:33:55.801Z,70.64
2019-03-20T06:34:36.322Z,70.64
2019-03-20T06:35:16.553Z,70.83
2019-03-20T06:35:57.170Z,72.26
2019-03-20T06:36:37.559Z,73.3
2019-03-20T06:37:18.374Z,73.88
2019-03-20T06:50:45.543Z,75.64
2019-03-20T06:51:25.064Z,76.31
2019-03-20T06:52:05.554Z,76.12
2019-03-20T06:52:46.376Z,76.03
2019-03-20T06:53:26.785Z,76.69
2019-03-20T06:54:07.429Z,75.93
2019-03-20T06:54:47.977Z,76.12
2019-03-20T06:55:28.776Z,75.64
2019-03-20T06:57:51.981Z,77.92
2019-03-20T06:58:33.588Z,78.02
2019-03-20T06:59:15.781Z,79.35
2019-03-20T06:59:55.638Z,78.59
2019-03-20T07:00:36.164Z,78.21
2019-03-20T07:01:20.393Z,78.4
2019-03-20T07:02:00.537Z,78.69
2019-03-20T07:02:41.011Z,78.3
2019-03-20T07:03:21.615Z,78.69
2019-03-20T07:04:02.870Z,78.88
2019-03-20T07:04:43.360Z,79.06
2019-03-20T07:05:23.814Z,79.73
2019-03-20T07:06:04.363Z,79.54
2019-03-20T07:06:44.703Z,79.44
2019-03-20T07:07:25.446Z,79.16
2019-03-20T07:08:06.813Z,80.3
2019-03-20T07:08:46.843Z,81.1
2019-03-20T07:09:27.349Z,79.54
2019-03-20T07:10:08.192Z,78.72
2019-03-20T07:10:48.625Z,78.02
2019-03-20T07:11:30.820Z,78.11
2019-03-20T07:12:10.563Z,78.02
2019-03-20T07:12:50.980Z,78.97
2019-03-20T07:13:31.623Z,79.35
2019-03-20T07:14:12.055Z,79.25
2019-03-20T07:14:52.680Z,79.73
2019-03-20T07:15:33.810Z,80.21
2019-03-20T07:16:13.601Z,80.4
2019-03-20T07:16:54.159Z,80.02
2019-03-20T07:17:34.817Z,79.16
2019-03-20T07:18:15.213Z,80.21
2019-03-20T07:18:57.214Z,80.87
2019-03-20T07:21:05.818Z,80.3
2019-03-20T07:22:00.578Z,80.53
2019-03-20T07:26:52.313Z,79.96
2019-03-20T07:27:34.725Z,79.86
2019-03-20T07:28:15.073Z,78.91
2019-03-20T07:28:57.102Z,78.63
2019-03-20T07:29:37.577Z,77.97
2019-03-20T07:30:18.094Z,77.39
2019-03-20T07:30:58.817Z,77.2
2019-03-20T07:31:51.037Z,76.92
2019-03-20T07:32:32.296Z,77.3
2019-03-20T07:33:13.693Z,77.97
2019-03-20T07:33:54.099Z,77.97
2019-03-20T07:34:35.113Z,77.68
2019-03-20T07:35:15.536Z,77.49
2019-03-20T07:35:55.916Z,78.82
2019-03-20T07:36:36.300Z,79.3
2019-03-20T07:37:16.721Z,79.58
2019-03-20T07:37:57.152Z,78.91
2019-03-20T07:38:37.562Z,78.63
2019-03-20T07:39:17.995Z,78.44
2019-03-20T07:39:58.395Z,78.91
2019-03-20T07:40:38.940Z,78.63
2019-03-20T07:41:19.384Z,78.91
2019-03-20T07:41:59.793Z,79.58
2019-03-20T07:42:43.554Z,79.3
2019-03-20T07:43:23.989Z,79.2
2019-03-20T07:44:05.194Z,78.72
2019-03-20T07:44:45.682Z,79.96
2019-03-20T07:45:26.184Z,79.49
2019-03-20T07:46:06.655Z,80.05
2019-03-20T07:46:47.067Z,79.39
2019-03-20T07:47:27.731Z,78.63
2019-03-20T07:48:21.151Z,79.2
2019-03-20T07:48:50.828Z,79.2
2019-03-20T07:49:31.115Z,78.44
2019-03-20T07:50:12.531Z,78.34
2019-03-20T07:50:52.279Z,78.44
2019-03-20T07:51:32.837Z,78.63
2019-03-20T07:52:13.295Z,78.44
2019-03-20T07:52:54.000Z,79.11
2019-03-20T07:53:34.504Z,78.82
2019-03-20T07:54:15.356Z,78.06
2019-03-20T07:54:55.951Z,79.2
2019-03-20T07:55:36.606Z,79.39
2019-03-20T07:56:17.058Z,79.58
2019-03-20T07:56:57.466Z,79.77
2019-03-20T07:57:38.127Z,79.2
2019-03-20T07:58:19.141Z,80.63
2019-03-20T07:58:59.855Z,81.67
2019-03-20T07:59:39.998Z,81.2
2019-03-20T08:00:20.751Z,80.82
2019-03-20T08:01:01.156Z,80.34
2019-03-20T08:01:41.825Z,80.44
2019-03-20T08:02:22.227Z,79.86
2019-03-20T08:03:02.622Z,79.39
2019-03-20T08:03:44.804Z,81.2
2019-03-20T08:04:25.191Z,80.38
2019-03-20T08:05:05.649Z,80.29
2019-03-20T08:05:46.033Z,80.86
2019-03-20T08:06:26.454Z,80.57
2019-03-20T08:07:07.989Z,79.91
2019-03-20T08:07:48.597Z,80.19
2019-03-20T08:08:30.701Z,79.62
2019-03-20T08:09:15.849Z,79.52
2019-03-20T08:09:56.454Z,79.14
2019-03-20T08:10:36.994Z,78.77
2019-03-20T08:11:17.390Z,79.24
2019-03-20T08:12:06.942Z,79.43
2019-03-20T08:12:47.694Z,79.38
2019-03-20T08:13:28.767Z,79.19
2019-03-20T08:14:11.182Z,79.19
2019-03-20T08:14:51.614Z,79.19
2019-03-20T08:15:31.987Z,78.99
2019-03-20T08:16:12.535Z,79.47
2019-03-20T08:16:55.514Z,78.99
2019-03-20T08:17:36.238Z,78.99
2019-03-20T08:18:16.744Z,79.19
2019-03-20T08:18:58.890Z,79.09
2019-03-20T08:19:39.336Z,79.19
2019-03-20T08:20:21.565Z,79.19
2019-03-20T08:21:02.003Z,79.09
2019-03-20T08:21:42.966Z,79.19
2019-03-20T08:22:23.380Z,79.57
2019-03-20T08:23:03.930Z,79.57
2019-03-20T08:23:44.309Z,79.57
2019-03-20T08:24:26.482Z,78.99
2019-03-20T08:25:23.247Z,78.8
2019-03-20T08:26:03.684Z,78.8
2019-03-20T08:26:44.062Z,79.09
2019-03-20T08:27:25.412Z,78.8
2019-03-20T08:28:05.873Z,78.9
2019-03-20T08:28:46.249Z,79.28
2019-03-20T08:29:26.666Z,79.38
2019-03-20T08:30:07.161Z,79.09
2019-03-20T08:30:47.509Z,78.8
2019-03-20T08:31:27.991Z,78.75
2019-03-20T08:32:17.324Z,78.27
2019-03-20T08:33:06.660Z,78.08
2019-03-20T08:33:47.106Z,77.32
2019-03-20T08:34:27.534Z,76.84
2019-03-20T08:35:09.939Z,76.65
2019-03-20T08:35:52.299Z,76.27
2019-03-20T08:36:34.756Z,75.7
2019-03-20T08:37:15.185Z,75.6
2019-03-20T08:37:55.607Z,76.27
2019-03-20T08:38:37.621Z,76.27
2019-03-20T08:39:18.002Z,76.75
2019-03-20T08:39:59.269Z,76.46
2019-03-20T08:40:39.664Z,76.37
2019-03-20T08:41:20.126Z,76.46
2019-03-20T08:42:00.537Z,77.32
2019-03-20T08:42:43.179Z,77.42
2019-03-20T08:43:23.552Z,77.42
2019-03-20T08:44:06.378Z,77.7
2019-03-20T08:44:50.341Z,77.61
2019-03-20T08:45:30.906Z,77.61
2019-03-20T08:46:15.325Z,77.89
2019-03-20T08:46:55.786Z,77.51
2019-03-20T08:47:37.153Z,77.8
2019-03-20T08:48:17.332Z,78.56
2019-03-20T08:48:58.157Z,78.12
2019-03-20T08:49:41.639Z,77.8
2019-03-20T08:50:30.400Z,78.41
2019-03-20T08:51:10.798Z,78.12
2019-03-20T08:51:53.342Z,78.22
2019-03-20T08:52:35.702Z,78.12
2019-03-20T08:53:31.943Z,78.12
2019-03-20T08:54:12.334Z,78.22
2019-03-20T08:54:53.773Z,78.59
2019-03-20T08:55:34.872Z,78.03
2019-03-20T08:56:16.948Z,78.12
2019-03-20T08:56:59.321Z,78.31
2019-03-20T08:57:39.829Z,77.64
2019-03-20T08:58:20.286Z,77.78
2019-03-20T08:59:01.656Z,77.01
2019-03-20T08:59:42.024Z,76.54
2019-03-20T09:00:24.111Z,76.73
2019-03-20T09:01:08.657Z,76.54
2019-03-20T09:01:49.079Z,76.35
2019-03-20T09:02:29.575Z,75.87
2019-03-20T09:03:10.078Z,75.3
2019-03-20T09:03:50.597Z,75.3
2019-03-20T09:04:32.052Z,75.11
2019-03-20T09:05:11.781Z,75.01
2019-03-20T09:05:52.568Z,74.54
2019-03-20T09:06:33.062Z,74.54
2019-03-20T09:07:13.536Z,74.77
2019-03-20T09:07:53.993Z,74.86
2019-03-20T09:08:36.260Z,74.86
2019-03-20T09:09:16.609Z,74.19
2019-03-20T09:09:57.019Z,74.01
2019-03-20T09:10:37.530Z,73.33
2019-03-20T09:11:17.979Z,74.01
2019-03-20T09:11:58.389Z,74.1
2019-03-20T09:12:38.904Z,73.52
2019-03-20T09:13:35.370Z,73.72
2019-03-20T09:14:15.835Z,73.91
2019-03-20T09:15:00.274Z,73.43
2019-03-20T09:15:40.585Z,73.62
2019-03-20T09:16:21.005Z,73.72
2019-03-20T09:17:01.429Z,73.43
2019-03-20T09:17:41.892Z,73.52
2019-03-20T09:18:22.375Z,73.81
2019-03-20T09:19:02.846Z,73.05
2019-03-20T09:19:43.292Z,72.96
2019-03-20T09:20:23.745Z,72.76
2019-03-20T09:21:04.163Z,72.99
2019-03-20T09:21:45.235Z,72.61
2019-03-20T09:22:25.638Z,71.84
2019-03-20T09:23:06.035Z,72.09
2019-03-20T09:23:47.420Z,72.71
2019-03-20T09:24:27.854Z,72.61
2019-03-20T09:25:09.865Z,72.42
2019-03-20T09:25:50.404Z,72.51
2019-03-20T09:26:30.872Z,72.13
2019-03-20T09:27:11.209Z,71.37
2019-03-20T09:27:52.572Z,70.89
2019-03-20T09:28:32.974Z,71.37
2019-03-20T09:29:18.365Z,71.27
2019-03-20T09:29:54.646Z,70.98
2019-03-20T09:30:46.720Z,70.89
2019-03-20T09:31:28.715Z,70.61
2019-03-20T09:32:09.142Z,69.84
2019-03-20T09:32:49.556Z,70.7
2019-03-20T09:33:31.714Z,70.89
2019-03-20T09:34:12.221Z,71.18
2019-03-20T09:34:52.620Z,71.08
2019-03-20T09:38:48.721Z,69.78
2019-03-20T09:39:29.478Z,69.97
2019-03-20T09:40:09.852Z,69.49
2019-03-20T09:40:50.279Z,69.87
2019-03-20T09:41:30.686Z,69.87
2019-03-20T09:42:11.131Z,69.78
2019-03-20T09:42:51.921Z,69.15
2019-03-20T09:43:32.346Z,68.67
2019-03-20T09:44:12.911Z,67.71
2019-03-20T09:44:54.464Z,67.24
2019-03-20T09:45:37.026Z,67.05
2019-03-20T09:46:17.509Z,67.05
2019-03-20T09:46:58.646Z,67.71
2019-03-20T09:47:39.063Z,67.46
2019-03-20T09:48:19.611Z,66.79
2019-03-20T09:48:59.996Z,66.03
2019-03-20T09:49:42.090Z,65.36
2019-03-20T09:50:22.576Z,65.55
2019-03-20T09:51:02.989Z,65.55
2019-03-20T09:51:43.459Z,65.36
2019-03-20T09:52:23.845Z,65.36
2019-03-20T09:53:06.109Z,65.07
2019-03-20T09:53:46.501Z,64.78
2019-03-20T09:54:26.946Z,64.78
2019-03-20T09:55:09.048Z,64.4
2019-03-20T09:55:50.674Z,64.98
2019-03-20T09:56:33.418Z,64.69
2019-03-20T09:57:13.743Z,64.69
2019-03-20T09:57:54.170Z,65.07
2019-03-20T09:58:34.601Z,65.36
2019-03-20T09:59:15.789Z,65.45
2019-03-20T09:59:56.205Z,64.98
2019-03-20T10:00:36.632Z,65.01
2019-03-20T10:01:17.078Z,64.91
2019-03-20T10:01:57.545Z,64.05
2019-03-20T10:02:37.927Z,62.9
2019-03-20T10:03:37.337Z,62.62
2019-03-20T10:04:17.747Z,62.81
2019-03-20T10:04:59.486Z,62.33
2019-03-20T10:05:40.712Z,62.17
2019-03-20T10:06:23.080Z,61.98
2019-03-20T10:07:04.442Z,60.83
2019-03-20T10:07:45.134Z,60.55
2019-03-20T10:09:51.450Z,59.3
2019-03-20T10:10:39.077Z,58.86
2019-03-20T10:11:20.463Z,58.56
2019-03-20T10:12:01.180Z,58.09
2019-03-20T10:12:41.626Z,58.66
2019-03-20T10:13:24.207Z,59.05
2019-03-20T10:14:06.491Z,57.99
2019-03-20T10:14:47.803Z,57.54
2019-03-20T10:15:28.472Z,56.77
2019-03-20T10:16:09.779Z,56.39
2019-03-20T10:16:50.613Z,56.87
2019-03-20T10:17:32.068Z,56.2
2019-03-20T10:18:12.143Z,55.53
2019-03-20T10:18:52.574Z,56.01
2019-03-20T10:19:33.580Z,55.73
2019-03-20T10:20:14.562Z,55.15
2019-03-20T10:20:54.218Z,55.85
2019-03-20T10:21:37.197Z,55.46
2019-03-20T10:22:17.660Z,55.65
2019-03-20T10:22:58.077Z,55.56
2019-03-20T10:23:38.570Z,55.85
2019-03-20T10:24:18.912Z,55.27
2019-03-20T10:25:00.945Z,53.93
2019-03-20T10:25:45.019Z,52.97
2019-03-20T10:26:24.772Z,54.03
2019-03-20T10:27:06.094Z,52.5